Time;durP1;ratioP1;P1;durP2;ratioP2;P2;SDS_P1;SDS_P2;PMS_P1;PMS_P2;Temp;Humidity;BMP_temperature;BMP_pressure;BME280_temperature;BME280_humidity;BME280_pressure;Samples;Min_cycle;Max_cycle;Signal;HPM_P1;HPM_P2
2023/03/24 00:01:13;;;;;;;9.60;4.05;;;;;;;8.04;60.92;99771.19;5021364;28;20036;-70
2023/03/24 00:03:39;;;;;;;7.75;5.35;;;;;;;8.20;60.95;99766.09;5019355;28;20049;-69
2023/03/24 00:06:06;;;;;;;10.07;5.05;;;;;;;8.08;60.69;99764.09;5035655;28;20040;-68
2023/03/24 00:08:36;;;;;;;12.00;5.18;;;;;;;8.12;60.60;99756.06;5037913;28;20044;-69
2023/03/24 00:11:05;;;;;;;6.78;4.55;;;;;;;8.44;60.20;99745.03;5029023;28;20028;-69
2023/03/24 00:13:36;;;;;;;8.77;4.93;;;;;;;8.42;59.86;99744.25;5039142;28;20500;-70
2023/03/24 00:16:04;;;;;;;6.20;3.97;;;;;;;8.15;60.63;99737.69;5037338;28;20033;-70
2023/03/24 00:18:30;;;;;;;10.65;4.70;;;;;;;8.34;60.13;99729.03;5036144;28;20079;-71
2023/03/24 00:20:57;;;;;;;9.57;3.90;;;;;;;8.13;61.48;99717.88;5037566;28;20086;-70
2023/03/24 00:23:31;;;;;;;6.55;4.43;;;;;;;8.28;60.51;99722.34;5037341;28;20162;-70
2023/03/24 00:26:11;;;;;;;8.15;3.47;;;;;;;8.20;60.84;99713.22;5035114;28;20126;-71
2023/03/24 00:28:37;;;;;;;11.13;3.95;;;;;;;8.08;61.07;99709.44;5034883;28;20384;-68
2023/03/24 00:31:05;;;;;;;7.05;3.20;;;;;;;8.36;60.14;99706.34;5022409;28;20028;-69
2023/03/24 00:33:34;;;;;;;11.98;4.35;;;;;;;7.73;62.28;99699.81;5038271;28;20235;-70
2023/03/24 00:36:00;;;;;;;4.68;3.35;;;;;;;8.01;61.48;99698.50;5028070;28;20032;-67
2023/03/24 00:38:26;;;;;;;9.65;4.15;;;;;;;8.17;60.83;99687.34;5038689;28;20118;-67
2023/03/24 00:40:52;;;;;;;7.60;4.85;;;;;;;8.23;60.76;99685.28;5042224;28;20041;-66
2023/03/24 00:43:19;;;;;;;14.52;4.30;;;;;;;8.27;60.89;99680.75;5025700;28;20068;-67
2023/03/24 00:45:47;;;;;;;18.55;5.40;;;;;;;8.23;60.95;99677.47;5039021;28;20039;-66
2023/03/24 00:48:16;;;;;;;14.45;4.72;;;;;;;7.78;61.90;99670.13;5039001;28;20075;-67
2023/03/24 00:50:49;;;;;;;7.28;4.13;;;;;;;7.86;61.60;99681.84;5040147;28;20108;-69
2023/03/24 00:53:16;;;;;;;11.25;4.25;;;;;;;7.63;62.55;99667.34;5015493;28;20033;-66
2023/03/24 00:55:49;;;;;;;10.43;4.25;;;;;;;7.65;63.00;99659.47;5041079;28;20060;-71
2023/03/24 00:58:18;;;;;;;12.13;4.55;;;;;;;7.82;62.17;99650.84;5022334;28;20565;-68
2023/03/24 01:00:46;;;;;;;8.25;3.42;;;;;;;8.22;61.02;99659.31;5039991;28;20902;-68
2023/03/24 01:03:12;;;;;;;10.32;4.47;;;;;;;7.89;62.50;99649.63;5041000;28;20033;-69
2023/03/24 01:05:40;;;;;;;7.60;3.58;;;;;;;7.84;61.95;99644.66;5039463;28;20469;-68
2023/03/24 01:08:09;;;;;;;8.98;3.97;;;;;;;8.01;61.26;99641.25;5040582;28;20355;-68
2023/03/24 01:10:48;;;;;;;10.32;3.47;;;;;;;7.53;63.47;99629.63;5037275;28;20416;-67
2023/03/24 01:13:16;;;;;;;9.90;3.78;;;;;;;7.76;62.66;99625.13;5039860;28;20048;-67
2023/03/24 01:15:42;;;;;;;11.98;3.70;;;;;;;7.67;63.00;99627.28;5041244;28;20214;-67
2023/03/24 01:18:08;;;;;;;5.55;3.38;;;;;;;7.62;63.00;99624.03;5038978;28;20029;-68
2023/03/24 01:20:34;;;;;;;6.15;3.95;;;;;;;8.06;61.65;99623.63;5037346;28;20115;-68
2023/03/24 01:23:06;;;;;;;7.40;4.32;;;;;;;7.90;62.29;99617.50;5039791;28;20552;-68
2023/03/24 01:25:35;;;;;;;5.83;4.40;;;;;;;7.47;63.56;99607.38;5041526;28;20516;-67
2023/03/24 01:28:00;;;;;;;10.27;4.15;;;;;;;7.47;63.68;99603.94;5040342;28;20037;-67
2023/03/24 01:30:27;;;;;;;6.55;3.33;;;;;;;7.50;63.81;99591.63;5040955;28;20508;-69
2023/03/24 01:32:53;;;;;;;6.15;3.17;;;;;;;7.33;64.19;99601.97;5039845;28;20070;-69
2023/03/24 01:35:21;;;;;;;9.30;3.67;;;;;;;7.60;63.61;99593.81;5039698;28;21448;-67
2023/03/24 01:37:47;;;;;;;8.88;3.58;;;;;;;7.63;63.24;99594.53;5040534;28;20063;-69
2023/03/24 01:40:18;;;;;;;6.25;3.65;;;;;;;8.38;60.94;99576.09;5039100;28;20844;-68
2023/03/24 01:42:45;;;;;;;9.48;3.85;;;;;;;7.90;62.38;99570.69;5038995;28;20379;-69
2023/03/24 01:45:41;;;;;;;8.18;3.58;;;;;;;7.74;62.80;99566.22;5039795;28;20036;-67
2023/03/24 01:48:13;;;;;;;9.20;3.65;;;;;;;7.23;64.10;99570.38;5012531;28;20166;-70
2023/03/24 01:50:41;;;;;;;7.00;2.90;;;;;;;7.63;63.57;99559.88;5024679;28;20056;-69
2023/03/24 01:53:07;;;;;;;10.85;2.75;;;;;;;8.02;62.12;99548.41;5039073;28;20044;-68
2023/03/24 01:55:33;;;;;;;7.32;3.40;;;;;;;8.28;61.64;99544.47;5039220;28;20159;-67
2023/03/24 01:58:01;;;;;;;7.95;3.25;;;;;;;7.87;63.04;99544.81;5010531;28;20569;-68
2023/03/24 02:00:38;;;;;;;4.05;2.22;;;;;;;8.14;61.95;99540.00;5017803;28;20053;-69
2023/03/24 02:03:40;;;;;;;6.68;3.42;;;;;;;8.06;62.18;99524.75;5037803;28;20068;-69
2023/03/24 02:06:07;;;;;;;10.88;2.42;;;;;;;7.89;62.59;99528.22;5022341;28;20129;-70
2023/03/24 02:08:47;;;;;;;3.78;2.25;;;;;;;7.61;63.73;99523.53;5033627;28;20737;-68
2023/03/24 02:11:13;;;;;;;4.00;2.85;;;;;;;7.63;63.50;99521.72;5036013;28;20155;-67
2023/03/24 02:13:47;;;;;;;9.52;3.15;;;;;;;7.69;63.90;99511.00;5024084;28;20064;-68
2023/03/24 02:16:22;;;;;;;6.20;2.38;;;;;;;8.06;62.37;99503.09;5023881;28;20477;-67
2023/03/24 02:18:59;;;;;;;3.13;2.20;;;;;;;7.73;64.01;99486.53;5023503;28;20040;-70
2023/03/24 02:21:56;;;;;;;6.55;2.38;;;;;;;7.56;64.63;99488.28;5022140;28;20121;-70
2023/03/24 02:24:36;;;;;;;5.68;2.45;;;;;;;7.79;64.06;99485.38;5035492;28;20187;-69
2023/03/24 02:27:28;;;;;;;3.05;1.85;;;;;;;7.37;65.32;99483.13;5017322;28;20090;-70
2023/03/24 02:30:00;;;;;;;4.78;2.25;;;;;;;7.46;64.97;99477.47;4953095;28;20073;-70
2023/03/24 02:32:38;;;;;;;5.05;2.28;;;;;;;8.02;63.23;99475.56;4997214;28;20106;-68
2023/03/24 02:35:25;;;;;;;5.38;2.10;;;;;;;7.88;63.74;99463.25;5024588;28;20046;-68
2023/03/24 02:38:12;;;;;;;4.97;2.72;;;;;;;7.28;65.02;99448.00;5014597;28;20029;-68
2023/03/24 02:41:03;;;;;;;2.75;2.17;;;;;;;7.94;63.80;99444.75;4999386;28;20128;-69
2023/03/24 02:43:28;;;;;;;4.35;2.40;;;;;;;7.58;64.74;99440.50;5010327;28;20053;-69
2023/03/24 02:46:15;;;;;;;8.80;3.10;;;;;;;7.60;64.95;99450.81;5035918;28;20299;-69
2023/03/24 02:49:20;;;;;;;9.10;2.80;;;;;;;7.37;65.17;99439.75;5023331;28;20511;-70
2023/03/24 02:52:02;;;;;;;4.38;2.60;;;;;;;7.61;65.03;99440.34;5035928;28;20452;-70
2023/03/24 02:54:56;;;;;;;3.33;1.85;;;;;;;7.82;63.88;99424.53;5037163;28;20032;-70
2023/03/24 02:57:33;;;;;;;2.58;1.88;;;;;;;7.66;64.36;99419.28;5029428;28;20037;-69
2023/03/24 03:00:27;;;;;;;6.22;2.28;;;;;;;7.69;64.14;99400.91;5033711;28;20032;-69
2023/03/24 03:03:27;;;;;;;7.15;2.83;;;;;;;8.09;63.05;99399.69;5037327;28;20472;-69
2023/03/24 03:05:58;;;;;;;3.20;1.70;;;;;;;8.01;63.54;99401.84;5025399;28;21007;-68
2023/03/24 03:08:28;;;;;;;6.13;2.08;;;;;;;8.04;63.41;99396.47;5015251;28;20480;-69
2023/03/24 03:10:56;;;;;;;3.30;2.00;;;;;;;7.84;64.33;99394.94;5025141;28;20094;-69
2023/03/24 03:13:37;;;;;;;4.65;2.67;;;;;;;7.78;64.62;99389.22;5036099;28;20195;-69
2023/03/24 03:16:21;;;;;;;2.20;1.58;;;;;;;7.52;65.24;99378.38;5031559;28;20040;-69
2023/03/24 03:18:54;;;;;;;5.82;2.10;;;;;;;7.76;64.45;99381.50;5015414;28;20040;-70
2023/03/24 03:21:24;;;;;;;3.20;1.67;;;;;;;8.34;62.87;99374.97;5036378;28;20148;-68
2023/03/24 03:24:01;;;;;;;6.65;2.67;;;;;;;7.81;64.60;99368.25;5003644;28;20061;-68
2023/03/24 03:26:31;;;;;;;7.63;2.63;;;;;;;7.58;65.36;99361.63;5038584;28;20036;-68
2023/03/24 03:29:03;;;;;;;2.58;1.73;;;;;;;8.00;64.47;99363.75;5018557;28;20091;-69
2023/03/24 03:31:40;;;;;;;4.88;1.80;;;;;;;8.19;63.30;99362.78;5037954;28;22499;-68
2023/03/24 03:34:27;;;;;;;4.80;2.33;;;;;;;8.11;64.00;99361.44;5036117;28;20127;-68
2023/03/24 03:37:17;;;;;;;5.32;1.60;;;;;;;8.17;63.84;99354.22;5039255;28;20155;-73
2023/03/24 03:40:00;;;;;;;5.38;1.60;;;;;;;7.89;64.71;99355.66;5039650;28;20047;-69
2023/03/24 03:42:27;;;;;;;7.72;1.88;;;;;;;8.08;64.15;99352.94;5017064;28;20044;-70
2023/03/24 03:44:54;;;;;;;3.38;1.27;;;;;;;8.31;63.71;99351.69;5016682;28;20299;-69
2023/03/24 03:47:21;;;;;;;4.15;1.85;;;;;;;8.36;63.51;99349.69;5016523;28;20036;-70
2023/03/24 03:49:49;;;;;;;2.70;1.75;;;;;;;7.84;65.05;99339.47;5024136;28;20529;-71
2023/03/24 03:52:15;;;;;;;3.75;2.00;;;;;;;8.27;63.63;99332.81;5014034;28;20032;-69
2023/03/24 03:54:42;;;;;;;6.40;2.13;;;;;;;7.85;64.87;99346.38;5028299;28;20115;-69
2023/03/24 03:57:12;;;;;;;2.45;1.73;;;;;;;7.61;65.55;99344.13;5024632;28;20310;-69
2023/03/24 04:00:14;;;;;;;3.28;2.03;;;;;;;7.65;66.33;99343.03;5027155;28;20072;-69
2023/03/24 04:03:04;;;;;;;2.55;1.85;;;;;;;7.83;65.70;99330.00;5021305;28;20037;-69
2023/03/24 04:05:49;;;;;;;3.38;1.77;;;;;;;7.95;65.22;99340.56;5024087;28;20090;-69
2023/03/24 04:08:38;;;;;;;2.78;1.67;;;;;;;8.34;63.96;99325.50;5020464;28;20051;-69
2023/03/24 04:11:33;;;;;;;2.72;1.67;;;;;;;8.36;63.97;99339.28;5036604;28;20445;-68
2023/03/24 04:14:28;;;;;;;3.83;2.10;;;;;;;8.45;63.67;99330.94;5035918;28;20062;-66
2023/03/24 04:17:31;;;;;;;2.58;1.70;;;;;;;8.07;64.38;99313.06;5040745;28;20453;-69
2023/03/24 04:20:13;;;;;;;3.92;1.40;;;;;;;7.95;65.06;99337.13;5026179;28;20028;-70
2023/03/24 04:22:53;;;;;;;2.83;1.40;;;;;;;8.31;64.24;99342.09;5038597;28;20572;-70
2023/03/24 04:26:00;;;;;;;2.70;1.90;;;;;;;8.35;64.23;99342.78;5037776;28;20298;-67
2023/03/24 04:28:58;;;;;;;3.00;1.48;;;;;;;8.24;64.79;99337.31;5039060;28;20047;-69
2023/03/24 04:31:32;;;;;;;2.60;1.27;;;;;;;8.01;65.62;99339.41;5026366;28;20035;-69
2023/03/24 04:34:15;;;;;;;4.10;1.73;;;;;;;8.03;65.25;99334.97;5041644;28;20039;-68
2023/03/24 04:36:49;;;;;;;5.32;2.35;;;;;;;8.44;63.95;99329.25;5044112;28;20056;-65
2023/03/24 04:39:43;;;;;;;4.35;1.88;;;;;;;8.31;64.52;99325.66;5037203;28;20045;-69
2023/03/24 04:42:20;;;;;;;3.92;1.90;;;;;;;8.10;65.09;99341.53;5039774;28;20316;-69
2023/03/24 04:44:50;;;;;;;3.58;1.60;;;;;;;8.06;65.17;99381.63;5029362;28;20040;-70
2023/03/24 04:47:44;;;;;;;3.30;1.40;;;;;;;7.82;66.32;99388.97;5037480;28;22354;-68
2023/03/24 04:50:36;;;;;;;1.50;0.82;;;;;;;7.37;65.62;99394.75;5023035;28;20444;-71
2023/03/24 04:53:08;;;;;;;1.83;0.55;;;;;;;7.37;64.36;99405.13;5010244;28;20106;-72
2023/03/24 04:55:49;;;;;;;3.28;0.90;;;;;;;7.81;62.36;99418.50;5019266;28;20029;-68
2023/03/24 04:58:21;;;;;;;2.17;0.50;;;;;;;7.55;62.45;99412.03;5010240;28;20040;-67
2023/03/24 05:00:48;;;;;;;2.97;0.85;;;;;;;7.55;62.60;99419.00;5022309;28;20110;-69
2023/03/24 05:03:15;;;;;;;2.30;0.50;;;;;;;7.32;63.19;99421.78;5041398;28;20044;-71
2023/03/24 05:05:43;;;;;;;2.65;0.70;;;;;;;7.93;61.70;99443.03;5022850;28;20043;-72
2023/03/24 05:08:10;;;;;;;2.53;0.60;;;;;;;8.08;60.73;99429.22;5022345;28;20037;-65
2023/03/24 05:10:36;;;;;;;4.65;1.38;;;;;;;7.70;61.37;99431.22;5020231;28;20048;-67
2023/03/24 05:13:06;;;;;;;4.35;0.85;;;;;;;7.64;61.38;99442.75;5031839;28;20288;-65
2023/03/24 05:15:52;;;;;;;4.85;0.93;;;;;;;7.74;60.95;99443.16;5037402;28;20041;-66
2023/03/24 05:18:33;;;;;;;3.92;0.60;;;;;;;7.85;59.55;99438.25;5018826;28;20045;-65
2023/03/24 05:20:59;;;;;;;2.35;0.77;;;;;;;7.87;59.60;99449.41;5042086;28;20527;-66
2023/03/24 05:23:25;;;;;;;3.10;0.60;;;;;;;7.69;59.10;99459.00;5021272;28;20535;-67
2023/03/24 05:25:52;;;;;;;2.35;0.30;;;;;;;7.29;59.65;99471.34;5020982;28;20525;-69
2023/03/24 05:28:20;;;;;;;5.60;0.43;;;;;;;7.79;58.44;99474.13;5023448;28;20051;-69
2023/03/24 05:30:47;;;;;;;3.55;0.50;;;;;;;7.74;58.42;99483.00;5023342;28;20047;-69
2023/03/24 05:33:31;;;;;;;3.50;0.60;;;;;;;7.36;59.17;99473.66;5037087;28;20692;-70
2023/03/24 05:35:58;;;;;;;4.05;0.85;;;;;;;7.70;57.96;99491.03;5038628;28;20500;-69
2023/03/24 05:38:24;;;;;;;3.28;0.40;;;;;;;7.63;57.80;99492.28;5030949;28;20034;-68
2023/03/24 05:40:56;;;;;;;4.63;0.22;;;;;;;7.51;57.63;99485.88;5025307;28;20048;-69
2023/03/24 05:43:23;;;;;;;6.50;0.40;;;;;;;7.50;57.48;99500.63;5020053;28;20320;-68
2023/03/24 05:45:59;;;;;;;9.70;0.85;;;;;;;7.38;57.71;99518.56;5033185;28;20039;-67
2023/03/24 05:48:29;;;;;;;;;;;;;;;6.78;58.95;99527.44;5036339;28;20042;-69
2023/03/24 05:51:13;;;;;;;5.43;0.50;;;;;;;6.57;59.58;99518.00;5022025;28;20164;-72
2023/03/24 05:53:39;;;;;;;4.75;0.45;;;;;;;6.50;59.37;99533.84;5010129;28;20052;-69
2023/03/24 05:56:05;;;;;;;4.30;0.50;;;;;;;6.08;59.57;99527.03;5018399;28;20044;-70
2023/03/24 05:58:51;;;;;;;3.78;0.57;;;;;;;7.03;57.34;99547.09;5020258;28;20041;-71
2023/03/24 06:01:18;;;;;;;6.28;0.38;;;;;;;7.00;57.02;99550.69;5026423;28;20199;-67
2023/03/24 06:03:44;;;;;;;2.17;0.70;;;;;;;6.15;59.27;99550.97;5007458;28;20037;-72
2023/03/24 06:06:13;;;;;;;8.60;0.30;;;;;;;6.62;57.95;99555.84;5000974;28;20049;-71
2023/03/24 06:08:40;;;;;;;3.90;0.55;;;;;;;6.41;57.96;99555.03;5014429;28;20033;-68
2023/03/24 06:11:06;;;;;;;7.85;1.20;;;;;;;6.93;57.09;99564.00;4987235;28;20490;-67
2023/03/24 06:13:41;;;;;;;5.00;1.05;;;;;;;6.84;57.34;99563.53;4994703;28;20032;-68
2023/03/24 06:16:08;;;;;;;5.18;0.45;;;;;;;7.42;55.35;99564.31;5011486;28;20514;-68
2023/03/24 06:18:41;;;;;;;6.45;0.30;;;;;;;7.57;55.09;99562.78;5011537;28;20046;-68
2023/03/24 06:21:17;;;;;;;4.85;0.30;;;;;;;7.25;56.00;99572.91;5023417;28;20090;-69
2023/03/24 06:23:45;;;;;;;7.80;0.60;;;;;;;8.10;53.54;99569.69;5022396;28;20197;-66
2023/03/24 06:26:15;;;;;;;8.13;0.60;;;;;;;7.39;55.30;99580.91;5022437;28;20780;-67
2023/03/24 06:29:07;;;;;;;5.30;0.50;;;;;;;7.43;55.18;99586.81;5016662;28;20509;-65
2023/03/24 06:31:38;;;;;;;11.40;0.80;;;;;;;7.32;55.46;99590.75;5021614;28;20253;-66
2023/03/24 06:34:04;;;;;;;6.72;0.50;;;;;;;7.02;56.85;99589.56;5015101;28;20045;-66
2023/03/24 06:36:30;;;;;;;3.72;0.77;;;;;;;6.23;58.71;99602.50;5037246;28;20035;-68
2023/03/24 06:38:55;;;;;;;12.73;0.75;;;;;;;6.42;58.46;99608.63;5019473;28;20031;-68
2023/03/24 06:41:24;;;;;;;3.35;0.30;;;;;;;6.71;57.57;99609.13;5023093;28;20094;-69
2023/03/24 06:43:54;;;;;;;8.70;1.92;;;;;;;6.96;56.92;99623.63;5038287;28;20314;-69
2023/03/24 06:46:19;;;;;;;5.40;0.40;;;;;;;7.06;56.52;99619.69;5021326;28;20070;-67
2023/03/24 06:48:47;;;;;;;12.25;0.85;;;;;;;6.84;57.14;99631.06;5021771;28;20083;-66
2023/03/24 06:51:13;;;;;;;3.97;0.75;;;;;;;6.95;56.33;99632.31;5021073;28;20028;-67
2023/03/24 06:53:40;;;;;;;2.15;0.30;;;;;;;7.19;56.32;99641.59;5036918;28;20028;-68
2023/03/24 06:56:07;;;;;;;10.90;0.70;;;;;;;7.06;56.49;99650.84;5024687;28;20160;-66
2023/03/24 06:58:38;;;;;;;5.97;1.08;;;;;;;6.56;58.23;99661.72;5018171;28;20080;-67
2023/03/24 07:01:06;;;;;;;9.93;0.85;;;;;;;7.16;56.75;99646.13;5021771;28;20121;-67
2023/03/24 07:03:42;;;;;;;6.57;0.82;;;;;;;7.15;56.02;99655.63;5022347;28;20339;-69
2023/03/24 07:06:28;;;;;;;6.32;0.90;;;;;;;7.30;55.63;99654.94;5040018;28;20110;-67
2023/03/24 07:09:00;;;;;;;10.05;0.88;;;;;;;7.00;56.51;99666.72;5000633;28;20033;-66
2023/03/24 07:11:27;;;;;;;13.68;0.80;;;;;;;6.73;56.96;99680.03;5021184;28;20016;-66
2023/03/24 07:13:56;;;;;;;7.88;0.70;;;;;;;7.60;55.13;99671.81;5020901;28;20124;-63
2023/03/24 07:16:25;;;;;;;10.55;2.03;;;;;;;6.92;56.43;99674.84;5023020;28;20094;-66
2023/03/24 07:19:05;;;;;;;6.50;1.33;;;;;;;7.37;55.33;99680.66;5017829;28;20460;-67
2023/03/24 07:21:34;;;;;;;4.68;0.45;;;;;;;7.27;55.90;99681.09;5016598;28;20039;-65
2023/03/24 07:24:01;;;;;;;6.57;0.95;;;;;;;7.51;55.07;99683.47;5020125;28;20036;-66
2023/03/24 07:26:37;;;;;;;5.35;0.60;;;;;;;7.24;55.13;99683.81;5021695;28;20643;-67
2023/03/24 07:29:21;;;;;;;10.15;0.75;;;;;;;7.22;55.05;99688.25;5020693;28;20043;-65
2023/03/24 07:32:06;;;;;;;7.70;0.75;;;;;;;7.10;55.44;99699.19;5039989;28;20063;-65
2023/03/24 07:34:35;;;;;;;6.72;0.77;;;;;;;7.07;55.32;99692.38;5018901;28;20476;-65
2023/03/24 07:37:01;;;;;;;12.13;1.13;;;;;;;6.87;55.95;99706.22;5018709;28;20032;-65
2023/03/24 07:39:27;;;;;;;3.22;0.30;;;;;;;7.20;55.81;99710.88;5020702;28;20051;-66
2023/03/24 07:41:53;;;;;;;5.80;0.47;;;;;;;7.05;55.34;99709.78;5024270;28;20056;-65
2023/03/24 07:44:35;;;;;;;;;;;;;;;6.79;56.43;99710.06;5018853;28;20101;-66
2023/03/24 07:47:01;;;;;;;13.15;1.63;;;;;;;7.15;54.85;99723.19;5020410;28;20400;-67
2023/03/24 07:49:26;;;;;;;2.85;0.77;;;;;;;6.92;55.13;99721.63;5021961;28;20071;-67
2023/03/24 07:52:05;;;;;;;8.88;1.60;;;;;;;6.99;55.23;99727.38;5028944;28;20071;-67
2023/03/24 07:54:40;;;;;;;7.53;0.50;;;;;;;7.50;54.25;99724.22;5022781;28;20269;-66
2023/03/24 07:57:06;;;;;;;2.65;0.40;;;;;;;7.23;54.23;99723.72;5023362;28;20032;-66
2023/03/24 07:59:33;;;;;;;5.35;0.70;;;;;;;7.08;54.45;99722.63;5038162;28;20564;-66
2023/03/24 08:02:19;;;;;;;10.55;1.23;;;;;;;7.39;54.24;99726.47;5030810;28;20561;-68
2023/03/24 08:05:04;;;;;;;19.80;2.05;;;;;;;7.16;54.61;99740.50;5040641;28;20441;-66
2023/03/24 08:07:44;;;;;;;11.13;0.80;;;;;;;6.84;55.00;99737.53;5035998;28;20521;-66
2023/03/24 08:10:14;;;;;;;8.55;0.98;;;;;;;7.23;54.73;99735.88;5040320;28;20097;-65
2023/03/24 08:12:40;;;;;;;8.95;0.68;;;;;;;7.21;54.63;99748.94;5036423;28;20498;-67
2023/03/24 08:15:08;;;;;;;4.28;0.50;;;;;;;7.37;54.09;99748.25;5043053;28;20155;-65
2023/03/24 08:17:34;;;;;;;9.60;0.85;;;;;;;7.51;54.33;99746.72;5038044;28;20032;-68
2023/03/24 08:20:03;;;;;;;8.00;0.90;;;;;;;7.22;54.91;99761.03;5042793;28;20272;-64
2023/03/24 08:22:29;;;;;;;11.07;1.10;;;;;;;7.65;53.94;99763.50;5041022;28;20138;-67
2023/03/24 08:24:54;;;;;;;4.22;0.50;;;;;;;7.26;54.32;99770.34;5038899;28;20107;-68
2023/03/24 08:27:20;;;;;;;9.68;0.75;;;;;;;6.55;56.20;99774.25;5027521;28;20683;-65
2023/03/24 08:29:45;;;;;;;6.55;0.88;;;;;;;7.14;55.56;99778.69;5037465;28;20090;-66
2023/03/24 08:32:11;;;;;;;10.93;1.33;;;;;;;7.78;53.82;99776.75;5042174;28;20028;-65
2023/03/24 08:34:36;;;;;;;5.65;1.55;;;;;;;7.68;54.16;99779.78;5014865;28;20108;-69
2023/03/24 08:37:02;;;;;;;6.28;0.90;;;;;;;8.12;53.45;99779.50;5043769;28;20147;-64
2023/03/24 08:39:31;;;;;;;9.35;1.25;;;;;;;8.08;53.72;99790.13;5040097;28;20041;-65
2023/03/24 08:41:57;;;;;;;5.32;0.60;;;;;;;8.19;52.89;99797.44;5038792;28;20064;-67
2023/03/24 08:44:23;;;;;;;11.20;1.42;;;;;;;8.10;52.34;99791.75;5038889;28;20196;-68
2023/03/24 08:46:48;;;;;;;9.35;1.27;;;;;;;7.77;53.12;99788.09;5039144;28;20515;-66
2023/03/24 08:49:14;;;;;;;3.83;0.50;;;;;;;7.81;52.42;99794.84;5039308;28;20036;-65
2023/03/24 08:51:40;;;;;;;15.60;1.35;;;;;;;8.34;51.86;99794.94;5032335;28;20060;-69
2023/03/24 08:54:06;;;;;;;10.30;0.73;;;;;;;8.22;51.36;99797.28;5036301;28;20042;-64
2023/03/24 08:56:31;;;;;;;7.55;0.73;;;;;;;8.41;50.51;99800.69;5036288;28;20039;-69
2023/03/24 08:58:58;;;;;;;11.45;0.93;;;;;;;8.57;50.85;99801.63;5032462;28;20040;-67
2023/03/24 09:01:23;;;;;;;9.20;0.60;;;;;;;8.50;51.02;99815.88;5034755;28;20040;-65
2023/03/24 09:03:49;;;;;;;5.95;1.00;;;;;;;8.80;50.16;99807.50;5035968;28;20947;-67
2023/03/24 09:06:16;;;;;;;8.23;0.95;;;;;;;8.45;51.38;99810.06;5034991;28;20025;-67
2023/03/24 09:08:41;;;;;;;10.38;0.82;;;;;;;8.86;48.91;99812.41;5035366;28;20036;-66
2023/03/24 09:11:14;;;;;;;11.93;1.05;;;;;;;9.35;48.74;99829.97;5041987;28;21014;-67
2023/03/24 09:13:40;;;;;;;8.63;1.20;;;;;;;9.79;47.08;99813.75;5044090;28;20156;-66
2023/03/24 09:16:06;;;;;;;6.85;0.70;;;;;;;9.49;47.88;99831.84;5040920;28;20188;-66
2023/03/24 09:18:32;;;;;;;11.73;1.17;;;;;;;8.56;49.13;99831.22;5036719;28;20040;-66
2023/03/24 09:20:58;;;;;;;5.93;0.57;;;;;;;9.12;48.67;99824.16;5035582;28;20060;-69
2023/03/24 09:23:24;;;;;;;10.63;1.50;;;;;;;9.16;48.76;99840.47;5034363;28;20040;-68
2023/03/24 09:25:52;;;;;;;9.18;0.68;;;;;;;9.67;47.57;99846.53;5037164;28;20039;-66
2023/03/24 09:28:19;;;;;;;1.17;0.25;;;;;;;9.02;47.78;99828.13;5035622;28;20060;-67
2023/03/24 09:30:45;;;;;;;4.90;0.85;;;;;;;10.08;46.43;99827.84;5019358;28;20261;-67
2023/03/24 09:33:12;;;;;;;6.70;1.15;;;;;;;11.09;44.78;99833.53;5032673;28;20044;-67
2023/03/24 09:35:38;;;;;;;4.45;0.90;;;;;;;9.38;45.45;99816.75;5016026;28;20071;-67
2023/03/24 09:38:04;;;;;;;9.02;0.85;;;;;;;9.63;46.67;99850.22;5034590;28;20095;-70
2023/03/24 09:40:34;;;;;;;14.05;1.67;;;;;;;9.18;46.30;99834.25;5036208;28;20041;-68
2023/03/24 09:43:06;;;;;;;11.85;1.15;;;;;;;9.98;45.35;99834.50;5020241;28;20652;-68
2023/03/24 09:45:36;;;;;;;11.18;0.90;;;;;;;11.21;42.75;99832.81;5035432;28;20431;-67
2023/03/24 09:48:11;;;;;;;9.15;1.02;;;;;;;8.77;46.21;99839.78;5034249;28;20142;-69
2023/03/24 09:50:44;;;;;;;12.18;1.45;;;;;;;9.74;45.29;99847.03;5034038;28;20441;-70
2023/03/24 09:53:37;;;;;;;9.80;1.48;;;;;;;9.89;44.97;99835.00;5035838;28;20442;-66
2023/03/24 09:56:12;;;;;;;17.48;1.13;;;;;;;10.34;42.91;99836.84;5035447;28;20520;-71
2023/03/24 09:58:40;;;;;;;16.23;1.70;;;;;;;10.90;40.81;99826.75;5033697;28;20044;-71
2023/03/24 10:01:15;;;;;;;8.10;1.20;;;;;;;12.03;40.36;99847.91;5021864;28;20040;-67
2023/03/24 10:03:43;;;;;;;5.40;0.77;;;;;;;11.13;41.39;99845.47;5032962;28;20055;-71
2023/03/24 10:06:17;;;;;;;10.18;0.75;;;;;;;11.18;39.77;99848.69;5036374;28;20037;-71
2023/03/24 10:08:52;;;;;;;10.15;0.93;;;;;;;12.52;38.47;99841.31;5034829;28;20052;-69
2023/03/24 10:11:42;;;;;;;8.75;0.50;;;;;;;12.45;38.01;99847.91;5035916;28;20563;-69
2023/03/24 10:14:20;;;;;;;11.80;0.73;;;;;;;13.35;36.11;99835.03;5012565;28;20504;-70
2023/03/24 10:17:03;;;;;;;8.13;0.85;;;;;;;12.53;37.24;99850.03;5019643;28;20499;-67
2023/03/24 10:19:53;;;;;;;9.13;1.08;;;;;;;11.70;38.75;99850.78;5034763;28;20044;-69
2023/03/24 10:22:48;;;;;;;10.98;0.90;;;;;;;10.91;38.72;99849.38;5032837;28;20037;-67
2023/03/24 10:25:52;;;;;;;14.52;1.15;;;;;;;10.35;39.57;99874.28;5009345;28;20701;-70
2023/03/24 10:28:43;;;;;;;6.57;1.08;;;;;;;9.61;41.45;99878.19;5018768;28;20036;-69
2023/03/24 10:31:14;;;;;;;6.53;0.70;;;;;;;9.71;41.30;99881.97;5036496;28;20562;-67
2023/03/24 10:33:45;;;;;;;6.00;1.67;;;;;;;9.59;40.19;99885.25;5021892;28;20111;-69
2023/03/24 10:36:13;;;;;;;5.32;0.95;;;;;;;8.93;41.56;99886.75;5012315;28;20122;-66
2023/03/24 10:38:39;;;;;;;6.47;0.68;;;;;;;8.67;41.82;99892.34;5020859;28;20358;-71
2023/03/24 10:41:05;;;;;;;3.72;0.43;;;;;;;8.98;40.91;99897.84;5034207;28;20056;-69
2023/03/24 10:43:32;;;;;;;11.25;1.02;;;;;;;8.82;41.34;99907.28;5032977;28;20032;-69
2023/03/24 10:46:00;;;;;;;7.25;1.08;;;;;;;8.81;42.90;99905.63;5033055;28;20033;-70
2023/03/24 10:48:38;;;;;;;8.50;0.93;;;;;;;9.32;41.80;99896.16;5034323;28;20561;-70
2023/03/24 10:51:05;;;;;;;10.93;0.77;;;;;;;9.42;41.88;99893.06;5034503;28;20035;-69
2023/03/24 10:53:34;;;;;;;13.60;0.90;;;;;;;9.30;41.99;99916.25;5033794;28;20040;-68
2023/03/24 10:55:59;;;;;;;6.10;1.13;;;;;;;8.89;42.42;99906.06;5032327;28;20571;-68
2023/03/24 10:58:39;;;;;;;9.13;0.88;;;;;;;9.47;42.06;99906.72;5031189;28;20033;-69
2023/03/24 11:01:21;;;;;;;6.97;1.52;;;;;;;10.32;40.02;99908.38;5034293;28;20033;-68
2023/03/24 11:03:48;;;;;;;;;;;;;;;10.87;38.69;99907.13;5034760;28;20440;-71
2023/03/24 11:06:17;;;;;;;11.38;1.20;;;;;;;11.52;38.24;99910.31;5032113;28;20002;-69
2023/03/24 11:08:43;;;;;;;13.20;1.30;;;;;;;11.20;38.02;99905.19;5033750;28;20130;-69
2023/03/24 11:11:16;;;;;;;5.15;1.13;;;;;;;11.97;37.08;99920.75;5033145;28;20033;-69
2023/03/24 11:13:54;;;;;;;4.38;0.38;;;;;;;11.50;37.30;99921.81;5018042;28;20044;-74
2023/03/24 11:16:30;;;;;;;9.43;1.58;;;;;;;10.58;38.39;99930.47;5031390;28;20134;-72
2023/03/24 11:19:01;;;;;;;5.68;0.70;;;;;;;10.79;37.48;99916.22;5033314;28;20377;-68
2023/03/24 11:21:34;;;;;;;6.97;0.90;;;;;;;11.04;37.62;99925.34;5031947;28;20033;-69
2023/03/24 11:24:03;;;;;;;3.33;0.50;;;;;;;11.36;38.43;99920.00;5030839;28;20475;-68
2023/03/24 11:26:32;;;;;;;8.10;0.88;;;;;;;11.04;37.36;99914.88;5020403;28;20028;-69
2023/03/24 11:29:02;;;;;;;8.05;1.17;;;;;;;10.31;37.68;99917.16;5017921;28;20132;-68
2023/03/24 11:31:38;;;;;;;5.38;0.75;;;;;;;11.08;37.08;99937.28;5031496;28;20324;-69
2023/03/24 11:34:08;;;;;;;6.57;0.52;;;;;;;10.74;36.55;99928.69;5021722;28;20155;-67
2023/03/24 11:36:43;;;;;;;3.65;1.08;;;;;;;10.97;37.02;99944.88;5032107;28;20041;-68
2023/03/24 11:39:13;;;;;;;6.78;0.77;;;;;;;12.36;34.71;99951.53;5031628;28;20054;-71
2023/03/24 11:41:50;;;;;;;5.22;0.73;;;;;;;11.12;35.55;99935.34;5029301;28;20432;-70
2023/03/24 11:44:22;;;;;;;10.40;0.80;;;;;;;12.48;34.33;99949.91;5032238;28;20059;-71
2023/03/24 11:46:58;;;;;;;8.15;0.77;;;;;;;12.86;33.37;99954.53;5034043;28;20107;-72
2023/03/24 11:49:30;;;;;;;5.82;1.20;;;;;;;12.38;34.40;99951.41;5034216;28;20037;-71
2023/03/24 11:51:56;;;;;;;11.48;0.40;;;;;;;12.14;33.57;99969.50;5012567;28;20059;-67
2023/03/24 11:54:28;;;;;;;4.65;0.63;;;;;;;12.06;34.25;99946.38;4978956;28;21431;-68
2023/03/24 11:56:57;;;;;;;10.23;1.48;;;;;;;12.39;34.39;99940.84;5031813;28;20443;-67
2023/03/24 11:59:56;;;;;;;4.80;0.70;;;;;;;12.45;34.42;99943.09;5032204;28;20572;-68
2023/03/24 12:02:38;;;;;;;9.88;1.20;;;;;;;12.09;34.18;99946.22;5033888;28;20300;-70
2023/03/24 12:05:31;;;;;;;6.25;0.47;;;;;;;11.27;35.14;99937.06;5031990;28;20032;-69
2023/03/24 12:08:12;;;;;;;13.13;1.55;;;;;;;11.65;35.30;99961.00;5030253;28;20036;-68